Time;durP1;ratioP1;P1;durP2;ratioP2;P2;SDS_P1;SDS_P2;PMS_P1;PMS_P2;Temp;Humidity;BMP_temperature;BMP_pressure;BME280_temperature;BME280_humidity;BME280_pressure;Samples;Min_cycle;Max_cycle;Signal;HPM_P1;HPM_P2
2022/07/27 00:00:56;;;;;;;;;;;19.10;99.90;;;;;;5033102;28;20274;-84
2022/07/27 00:03:22;;;;;;;;;;;19.10;99.90;;;;;;5032966;28;19909;-83
2022/07/27 00:05:47;;;;;;;;;;;19.10;99.90;;;;;;5033589;28;19944;-83
2022/07/27 00:08:13;;;;;;;;;;;19.10;99.90;;;;;;5032617;28;19916;-83
2022/07/27 00:10:38;;;;;;;;;;;19.10;99.90;;;;;;5033949;28;20012;-84
2022/07/27 00:13:05;;;;;;;;;;;18.90;99.90;;;;;;5034020;28;19952;-83
2022/07/27 00:15:30;;;;;;;;;;;18.90;99.90;;;;;;5032717;28;19913;-84
2022/07/27 00:17:59;;;;;;;;;;;18.80;99.90;;;;;;5033562;28;19952;-84
2022/07/27 00:20:31;;;;;;;;;;;18.80;99.90;;;;;;5032714;28;20384;-83
2022/07/27 00:22:57;;;;;;;;;;;18.90;99.90;;;;;;5034116;28;19909;-83
2022/07/27 00:25:23;;;;;;;;;;;18.80;99.90;;;;;;5032411;28;19909;-83
2022/07/27 00:27:49;;;;;;;;;;;18.80;99.90;;;;;;5031665;28;20007;-83
2022/07/27 00:30:14;;;;;;;;;;;18.80;99.90;;;;;;5033322;28;19994;-83
2022/07/27 00:32:40;;;;;;;;;;;18.80;99.90;;;;;;5032631;28;19909;-83
2022/07/27 00:35:05;;;;;;;;;;;18.70;99.90;;;;;;5032734;28;19909;-84
2022/07/27 00:37:31;;;;;;;;;;;18.80;99.90;;;;;;5032227;28;20300;-83
2022/07/27 00:39:56;;;;;;;;;;;18.80;99.90;;;;;;5031297;28;20364;-83
2022/07/27 00:42:26;;;;;;;;;;;18.80;99.90;;;;;;5031114;28;19955;-85
2022/07/27 00:44:52;;;;;;;;;;;18.80;99.90;;;;;;5031263;28;20229;-83
2022/07/27 00:47:18;;;;;;;;;;;18.70;99.90;;;;;;5030790;28;19909;-83
2022/07/27 00:52:19;;;;;;;;;;;18.70;99.90;;;;;;4912248;22;19926;-78
2022/07/27 00:54:46;;;;;;;;;;;18.60;99.90;;;;;;5014609;28;20345;-78
2022/07/27 00:57:13;;;;;;;;;;;18.60;99.90;;;;;;5014141;28;19909;-78
2022/07/27 00:59:39;;;;;;;;;;;18.50;99.90;;;;;;5014276;28;19932;-78
2022/07/27 01:02:06;;;;;;;;;;;18.50;99.90;;;;;;5010955;28;20300;-78
2022/07/27 01:04:31;;;;;;;;;;;18.60;99.90;;;;;;5014159;28;19971;-78
2022/07/27 01:06:57;;;;;;;;;;;18.50;99.90;;;;;;5015748;28;20337;-78
2022/07/27 01:12:13;;;;;;;;;;;18.70;99.90;;;;;;5036114;28;19923;-78
2022/07/27 01:14:39;;;;;;;;;;;18.70;99.90;;;;;;5018072;28;19913;-78
2022/07/27 01:17:05;;;;;;;;;;;18.70;99.90;;;;;;5018037;28;19909;-78
2022/07/27 01:19:31;;;;;;;;;;;18.70;99.90;;;;;;5017936;28;19921;-78
2022/07/27 01:21:57;;;;;;;;;;;18.70;99.90;;;;;;5018149;28;19909;-78
2022/07/27 01:24:23;;;;;;;;;;;18.60;99.90;;;;;;5018072;28;20086;-78
2022/07/27 01:26:48;;;;;;;;;;;18.50;99.90;;;;;;5017685;28;19909;-77
2022/07/27 01:29:14;;;;;;;;;;;18.50;99.90;;;;;;5018065;28;19909;-78
2022/07/27 01:31:40;;;;;;;;;;;18.60;99.90;;;;;;5017777;28;20403;-78
2022/07/27 01:34:05;;;;;;;;;;;18.60;99.90;;;;;;5019710;28;19915;-79
2022/07/27 01:36:31;;;;;;;;;;;18.60;99.90;;;;;;5017776;28;19996;-79
2022/07/27 01:38:56;;;;;;;;;;;18.50;99.90;;;;;;5017901;28;20372;-78
2022/07/27 01:41:22;;;;;;;;;;;18.50;99.90;;;;;;5017611;28;19956;-78
2022/07/27 01:43:48;;;;;;;;;;;18.40;99.90;;;;;;5017844;28;19995;-78
2022/07/27 01:46:13;;;;;;;;;;;18.30;99.90;;;;;;5017490;28;19941;-78
2022/07/27 01:48:39;;;;;;;;;;;18.30;99.90;;;;;;5017765;28;19983;-78
2022/07/27 01:51:05;;;;;;;;;;;18.30;99.90;;;;;;5017446;28;19917;-78
2022/07/27 01:53:31;;;;;;;;;;;18.30;99.90;;;;;;5017457;28;19913;-78
2022/07/27 01:55:56;;;;;;;;;;;18.20;99.90;;;;;;5017288;28;19932;-78
2022/07/27 01:58:22;;;;;;;;;;;18.10;99.90;;;;;;5017236;28;19913;-78
2022/07/27 02:00:48;;;;;;;;;;;18.10;99.90;;;;;;5017494;28;19932;-78
2022/07/27 02:03:14;;;;;;;;;;;18.20;99.90;;;;;;5017407;28;19917;-78
2022/07/27 02:05:39;;;;;;;;;;;18.10;99.90;;;;;;5017516;28;20388;-78
2022/07/27 02:08:05;;;;;;;;;;;18.10;99.90;;;;;;5016968;28;19910;-78
2022/07/27 02:10:31;;;;;;;;;;;18.00;99.90;;;;;;5016993;28;19917;-78
2022/07/27 02:12:57;;;;;;;;;;;18.10;99.90;;;;;;5017032;28;19909;-78
2022/07/27 02:15:23;;;;;;;;;;;18.00;99.90;;;;;;5017145;28;19913;-78
2022/07/27 02:17:53;;;;;;;;;;;17.90;99.90;;;;;;5016736;28;19915;-78
2022/07/27 02:20:20;;;;;;;;;;;17.90;99.90;;;;;;5017197;28;20376;-77
2022/07/27 02:22:46;;;;;;;;;;;17.80;99.90;;;;;;5017053;28;19909;-77
2022/07/27 02:25:12;;;;;;;;;;;17.70;99.90;;;;;;5016992;28;20004;-78
2022/07/27 02:27:39;;;;;;;;;;;17.70;99.90;;;;;;5016791;28;19917;-77
2022/07/27 02:30:05;;;;;;;;;;;17.60;99.90;;;;;;5016801;28;19909;-78
2022/07/27 02:32:30;;;;;;;;;;;17.60;99.90;;;;;;5016725;28;20446;-77
2022/07/27 02:34:56;;;;;;;;;;;17.70;99.90;;;;;;5016689;28;19909;-77
2022/07/27 02:37:22;;;;;;;;;;;17.60;99.90;;;;;;5016561;28;19916;-77
2022/07/27 02:39:48;;;;;;;;;;;17.70;99.90;;;;;;5016691;28;19940;-78
2022/07/27 02:42:13;;;;;;;;;;;17.70;99.90;;;;;;5016579;28;19913;-78
2022/07/27 02:44:39;;;;;;;;;;;17.70;99.90;;;;;;5016627;28;20018;-78
2022/07/27 02:47:04;;;;;;;;;;;17.60;99.90;;;;;;5016362;28;19915;-78
2022/07/27 02:49:33;;;;;;;;;;;17.60;99.90;;;;;;5016511;28;20287;-78
2022/07/27 02:51:59;;;;;;;;;;;17.50;99.90;;;;;;5016252;28;19924;-78
2022/07/27 02:54:24;;;;;;;;;;;17.40;99.90;;;;;;5016408;28;20284;-77
2022/07/27 02:56:51;;;;;;;;;;;17.40;99.90;;;;;;5016078;28;20016;-78
2022/07/27 02:59:17;;;;;;;;;;;17.30;99.90;;;;;;5016336;28;20331;-78
2022/07/27 03:01:43;;;;;;;;;;;17.10;99.90;;;;;;5016212;28;19996;-78
2022/07/27 03:04:08;;;;;;;;;;;17.10;99.90;;;;;;5016301;28;19999;-78
2022/07/27 03:06:34;;;;;;;;;;;17.10;99.90;;;;;;5015976;28;19916;-78
2022/07/27 03:08:59;;;;;;;;;;;17.00;99.90;;;;;;5015941;28;19928;-78
2022/07/27 03:11:25;;;;;;;;;;;16.90;99.90;;;;;;5016117;28;19913;-78
2022/07/27 03:13:51;;;;;;;;;;;16.90;99.90;;;;;;5016273;28;19909;-78
2022/07/27 03:16:16;;;;;;;;;;;16.80;99.90;;;;;;5015942;28;20008;-78
2022/07/27 03:18:42;;;;;;;;;;;16.70;99.90;;;;;;5015842;28;19913;-78
2022/07/27 03:21:07;;;;;;;;;;;16.70;99.90;;;;;;5015979;28;19909;-78
2022/07/27 03:23:33;;;;;;;;;;;16.70;99.90;;;;;;5015715;28;20364;-78
2022/07/27 03:25:59;;;;;;;;;;;16.60;99.90;;;;;;5015796;28;19909;-78
2022/07/27 03:28:24;;;;;;;;;;;16.60;99.90;;;;;;5015699;28;20055;-78
2022/07/27 03:30:50;;;;;;;;;;;16.60;99.90;;;;;;5015029;28;20418;-78
2022/07/27 03:33:15;;;;;;;;;;;16.40;99.90;;;;;;5015706;28;19963;-78
2022/07/27 03:35:41;;;;;;;;;;;16.40;99.90;;;;;;5015678;28;19916;-78
2022/07/27 03:38:06;;;;;;;;;;;16.30;99.90;;;;;;5015416;28;19913;-78
2022/07/27 03:40:32;;;;;;;;;;;16.30;99.90;;;;;;5015473;28;19952;-78
2022/07/27 03:42:58;;;;;;;;;;;16.30;99.90;;;;;;5015535;28;19916;-78
2022/07/27 03:45:24;;;;;;;;;;;16.30;99.90;;;;;;5015428;28;20316;-78
2022/07/27 03:47:50;;;;;;;;;;;16.20;99.90;;;;;;5015273;28;19956;-78
2022/07/27 03:50:16;;;;;;;;;;;16.20;99.90;;;;;;5015142;28;20394;-78
2022/07/27 03:52:41;;;;;;;;;;;16.10;99.90;;;;;;5015247;28;19909;-78
2022/07/27 03:55:07;;;;;;;;;;;16.10;99.90;;;;;;5015278;28;19910;-78
2022/07/27 03:57:33;;;;;;;;;;;16.10;99.90;;;;;;5012970;28;19913;-77
2022/07/27 03:59:58;;;;;;;;;;;16.10;99.90;;;;;;5015069;28;19917;-78
2022/07/27 04:02:24;;;;;;;;;;;16.00;99.90;;;;;;5014924;28;19909;-78
2022/07/27 04:04:49;;;;;;;;;;;16.00;99.90;;;;;;5014929;28;20343;-78
2022/07/27 04:07:15;;;;;;;;;;;16.00;99.90;;;;;;5014669;28;19909;-78
2022/07/27 04:09:41;;;;;;;;;;;16.00;99.90;;;;;;5015017;28;19996;-78
2022/07/27 04:12:07;;;;;;;;;;;16.00;99.90;;;;;;5014908;28;19917;-78
2022/07/27 04:14:32;;;;;;;;;;;15.90;99.90;;;;;;5015126;28;19910;-78
2022/07/27 04:16:58;;;;;;;;;;;15.90;99.90;;;;;;5014706;28;20387;-77
2022/07/27 04:19:23;;;;;;;;;;;15.90;99.90;;;;;;5014797;28;19920;-78
2022/07/27 04:21:49;;;;;;;;;;;15.90;99.90;;;;;;5014771;28;19952;-78
2022/07/27 04:24:15;;;;;;;;;;;15.90;99.90;;;;;;5014757;28;20342;-78
2022/07/27 04:26:40;;;;;;;;;;;15.90;99.90;;;;;;5014579;28;19909;-77
2022/07/27 04:29:06;;;;;;;;;;;15.90;99.90;;;;;;5014643;28;19915;-78
2022/07/27 04:31:31;;;;;;;;;;;15.80;99.90;;;;;;5014703;28;20387;-78
2022/07/27 04:33:57;;;;;;;;;;;15.80;99.90;;;;;;5014748;28;20292;-78
2022/07/27 04:36:23;;;;;;;;;;;15.80;99.90;;;;;;5014387;28;19920;-78
2022/07/27 04:38:48;;;;;;;;;;;15.90;99.90;;;;;;5014515;28;20364;-77
2022/07/27 04:41:14;;;;;;;;;;;15.90;99.90;;;;;;5013787;28;19916;-78
2022/07/27 04:43:42;;;;;;;;;;;15.90;99.90;;;;;;5014642;28;19917;-77
2022/07/27 04:46:08;;;;;;;;;;;16.00;99.90;;;;;;5014320;28;19931;-78
2022/07/27 04:48:34;;;;;;;;;;;16.00;99.90;;;;;;5014503;28;20421;-78
2022/07/27 04:50:59;;;;;;;;;;;16.00;99.90;;;;;;5014389;28;19927;-78
2022/07/27 04:53:25;;;;;;;;;;;16.00;99.90;;;;;;5014566;28;20327;-78
2022/07/27 04:55:51;;;;;;;;;;;16.00;99.90;;;;;;5014116;28;19956;-78
2022/07/27 04:58:16;;;;;;;;;;;16.00;99.90;;;;;;5014368;28;19916;-77
2022/07/27 05:00:42;;;;;;;;;;;16.00;99.90;;;;;;5014464;28;20371;-78
2022/07/27 05:03:08;;;;;;;;;;;16.00;99.90;;;;;;5014539;28;19909;-77
2022/07/27 05:05:34;;;;;;;;;;;16.10;99.90;;;;;;5014251;28;19917;-77
2022/07/27 05:08:00;;;;;;;;;;;16.10;99.90;;;;;;5014135;28;19914;-78
2022/07/27 05:10:25;;;;;;;;;;;16.10;99.90;;;;;;5014320;28;19959;-78
2022/07/27 05:12:51;;;;;;;;;;;16.20;99.90;;;;;;5014250;28;19909;-77
2022/07/27 05:15:20;;;;;;;;;;;16.20;99.90;;;;;;5014331;28;19916;-77
2022/07/27 05:17:46;;;;;;;;;;;16.30;99.90;;;;;;5013922;28;19909;-77
2022/07/27 05:20:12;;;;;;;;;;;16.30;99.90;;;;;;5014307;28;19915;-78
2022/07/27 05:22:37;;;;;;;;;;;16.30;99.90;;;;;;5014176;28;19971;-78
2022/07/27 05:25:03;;;;;;;;;;;16.40;99.90;;;;;;5014188;28;19913;-78
2022/07/27 05:27:29;;;;;;;;;;;16.40;99.90;;;;;;5013830;28;20422;-78
2022/07/27 05:29:54;;;;;;;;;;;16.50;99.90;;;;;;5014166;28;20372;-78
2022/07/27 05:32:21;;;;;;;;;;;16.50;99.90;;;;;;5014034;28;19975;-77
2022/07/27 05:34:46;;;;;;;;;;;16.50;99.90;;;;;;5013812;28;19909;-77
2022/07/27 05:37:12;;;;;;;;;;;16.60;99.90;;;;;;5013898;28;19975;-78
2022/07/27 05:39:40;;;;;;;;;;;16.60;99.90;;;;;;5013937;28;19909;-78
2022/07/27 05:42:07;;;;;;;;;;;16.70;99.90;;;;;;5014721;28;19916;-78
2022/07/27 05:44:33;;;;;;;;;;;16.80;99.90;;;;;;5013945;28;19913;-78
2022/07/27 05:46:58;;;;;;;;;;;16.90;99.90;;;;;;5013781;28;20060;-78
2022/07/27 05:49:24;;;;;;;;;;;17.00;99.90;;;;;;5013836;28;19917;-78
2022/07/27 05:51:49;;;;;;;;;;;17.10;99.90;;;;;;5013774;28;19928;-78
2022/07/27 05:54:15;;;;;;;;;;;17.30;99.90;;;;;;5011334;28;19913;-78
2022/07/27 05:56:41;;;;;;;;;;;17.30;99.90;;;;;;5018467;28;19916;-77
2022/07/27 05:59:06;;;;;;;;;;;17.40;99.90;;;;;;5017398;28;20047;-72
2022/07/27 06:01:32;;;;;;;;;;;17.50;99.90;;;;;;5017297;28;19909;-73
2022/07/27 06:03:58;;;;;;;;;;;17.60;99.90;;;;;;5017340;28;19932;-73
2022/07/27 06:09:07;;;;;;;;;;;17.60;99.90;;;;;;5035267;28;19916;-72
2022/07/27 06:11:33;;;;;;;;;;;17.80;99.90;;;;;;5017128;28;19913;-72
2022/07/27 06:13:58;;;;;;;;;;;17.80;99.90;;;;;;5017209;28;19909;-72
2022/07/27 06:16:24;;;;;;;;;;;17.90;99.90;;;;;;5016658;28;19945;-72
2022/07/27 06:18:50;;;;;;;;;;;17.90;99.90;;;;;;5017075;28;19915;-72
2022/07/27 06:21:15;;;;;;;;;;;18.00;99.90;;;;;;5017077;28;19955;-72
2022/07/27 06:23:42;;;;;;;;;;;18.10;99.90;;;;;;5019955;28;19909;-78
2022/07/27 06:26:08;;;;;;;;;;;18.30;99.90;;;;;;5019467;28;20090;-78
2022/07/27 06:28:33;;;;;;;;;;;18.30;99.90;;;;;;5020386;28;19909;-76
2022/07/27 06:30:59;;;;;;;;;;;18.10;99.90;;;;;;5017651;28;19998;-77
2022/07/27 06:33:28;;;;;;;;;;;18.30;99.90;;;;;;5019317;28;19931;-78
2022/07/27 06:35:53;;;;;;;;;;;18.40;99.90;;;;;;5018776;28;20365;-78
2022/07/27 06:38:20;;;;;;;;;;;18.40;99.90;;;;;;5018956;28;19984;-78
2022/07/27 06:40:46;;;;;;;;;;;18.50;99.90;;;;;;5019620;28;19944;-77
2022/07/27 06:43:12;;;;;;;;;;;18.50;99.90;;;;;;5019634;28;19915;-78
2022/07/27 06:45:37;;;;;;;;;;;18.40;99.90;;;;;;5021380;28;19909;-78
2022/07/27 06:48:03;;;;;;;;;;;18.30;99.90;;;;;;5020294;28;19947;-78
2022/07/27 06:50:29;;;;;;;;;;;18.40;99.90;;;;;;5021393;28;19969;-78
2022/07/27 06:52:54;;;;;;;;;;;18.40;99.90;;;;;;5021297;28;19909;-79
2022/07/27 06:55:20;;;;;;;;;;;18.50;99.90;;;;;;5054522;23;19995;-77
2022/07/27 06:57:46;;;;;;;;;;;18.30;99.90;;;;;;5052341;28;19909;-77
2022/07/27 07:00:12;;;;;;;;;;;18.40;99.90;;;;;;5052821;28;19908;-77
2022/07/27 07:02:39;;;;;;;;;;;18.40;99.90;;;;;;5054076;28;20382;-77
2022/07/27 07:05:04;;;;;;;;;;;18.50;99.90;;;;;;5051720;28;19908;-75
2022/07/27 07:07:30;;;;;;;;;;;18.60;99.90;;;;;;5052238;28;19958;-74
2022/07/27 07:09:56;;;;;;;;;;;18.60;99.90;;;;;;5051081;28;20008;-74
2022/07/27 07:12:21;;;;;;;;;;;18.70;99.90;;;;;;5058806;28;19917;-74
2022/07/27 07:14:47;;;;;;;;;;;18.80;99.90;;;;;;5034594;28;19909;-74
2022/07/27 07:17:13;;;;;;;;;;;19.00;99.90;;;;;;5031996;28;20003;-75
2022/07/27 07:19:38;;;;;;;;;;;19.10;99.90;;;;;;5032169;28;20416;-74
2022/07/27 07:22:04;;;;;;;;;;;19.30;99.90;;;;;;5032185;28;19956;-74
2022/07/27 07:24:30;;;;;;;;;;;19.40;99.90;;;;;;5050818;28;19908;-75
2022/07/27 07:26:55;;;;;;;;;;;19.50;99.90;;;;;;5051523;28;20264;-73
2022/07/27 07:29:21;;;;;;;;;;;19.60;99.90;;;;;;5051841;28;19916;-75
2022/07/27 07:31:46;;;;;;;;;;;19.90;99.90;;;;;;5051779;28;19913;-74
2022/07/27 07:34:12;;;;;;;;;;;19.90;99.90;;;;;;5051347;28;19995;-74
2022/07/27 07:36:38;;;;;;;;;;;20.00;99.90;;;;;;5051695;28;20008;-74
2022/07/27 07:39:03;;;;;;;;;;;20.00;99.90;;;;;;5051625;28;19916;-74
2022/07/27 07:41:29;;;;;;;;;;;20.00;99.90;;;;;;5050643;28;19915;-75
2022/07/27 07:43:55;;;;;;;;;;;20.00;99.90;;;;;;5050664;28;19919;-74
2022/07/27 07:46:20;;;;;;;;;;;20.10;99.90;;;;;;5048630;28;20007;-74
2022/07/27 07:48:46;;;;;;;;;;;20.10;99.90;;;;;;5036509;28;20376;-74
2022/07/27 07:51:15;;;;;;;;;;;20.20;99.90;;;;;;5032722;28;19921;-74
2022/07/27 07:53:40;;;;;;;;;;;20.20;99.90;;;;;;5051453;28;20253;-74
2022/07/27 07:56:06;;;;;;;;;;;20.40;99.90;;;;;;5050954;28;19969;-74
2022/07/27 07:58:32;;;;;;;;;;;20.50;99.90;;;;;;5051153;28;19953;-75
2022/07/27 08:00:57;;;;;;;;;;;20.70;99.90;;;;;;5044779;28;20060;-74
2022/07/27 08:03:23;;;;;;;;;;;21.00;99.90;;;;;;5045809;28;19933;-75
2022/07/27 08:05:49;;;;;;;;;;;21.70;99.90;;;;;;5050730;28;19917;-74
2022/07/27 08:08:15;;;;;;;;;;;22.90;99.90;;;;;;5051360;28;19919;-75
2022/07/27 08:10:41;;;;;;;;;;;23.70;99.90;;;;;;5051069;28;19916;-74
2022/07/27 08:13:07;;;;;;;;;;;23.70;99.90;;;;;;5050914;28;19913;-74
2022/07/27 08:15:33;;;;;;;;;;;23.60;99.90;;;;;;5050757;28;19916;-74
2022/07/27 08:17:58;;;;;;;;;;;24.70;99.50;;;;;;5050837;28;19909;-74
2022/07/27 08:20:27;;;;;;;;;;;26.20;97.70;;;;;;5051046;28;19912;-75
2022/07/27 08:22:53;;;;;;;;;;;27.30;93.90;;;;;;5051037;28;20351;-75
2022/07/27 08:25:18;;;;;;;;;;;28.30;90.80;;;;;;5050565;28;19940;-75
2022/07/27 08:27:44;;;;;;;;;;;27.40;84.40;;;;;;5050542;28;19909;-75
2022/07/27 08:30:10;;;;;;;;;;;26.50;84.20;;;;;;5050682;28;19963;-74
2022/07/27 08:32:57;;;;;;;;;;;25.40;88.20;;;;;;5050751;28;19917;-75
2022/07/27 08:35:22;;;;;;;;;;;24.60;88.90;;;;;;5050600;28;19956;-75
2022/07/27 08:37:48;;;;;;;;;;;25.00;91.70;;;;;;5052119;28;19952;-74
2022/07/27 08:40:14;;;;;;;;;;;25.30;91.50;;;;;;5050610;28;19970;-75
2022/07/27 08:42:41;;;;;;;;;;;24.90;91.40;;;;;;5050797;28;20011;-75
2022/07/27 08:45:08;;;;;;;;;;;24.50;90.90;;;;;;5050358;28;19909;-75
2022/07/27 08:47:34;;;;;;;;;;;24.20;90.60;;;;;;5050583;28;19908;-74
2022/07/27 08:50:00;;;;;;;;;;;24.20;92.00;;;;;;5050462;28;19909;-74
2022/07/27 08:52:26;;;;;;;;;;;24.10;93.10;;;;;;5050685;28;19920;-74
2022/07/27 08:54:52;;;;;;;;;;;24.00;93.00;;;;;;5045879;28;19916;-74
2022/07/27 08:57:17;;;;;;;;;;;23.90;93.60;;;;;;5050149;28;19944;-74
2022/07/27 08:59:43;;;;;;;;;;;24.00;94.30;;;;;;5050625;28;20283;-74
2022/07/27 09:02:09;;;;;;;;;;;24.70;92.90;;;;;;5050033;28;20318;-74
2022/07/27 09:04:35;;;;;;;;;;;26.20;91.50;;;;;;5050607;28;19985;-74
2022/07/27 09:07:00;;;;;;;;;;;25.70;90.00;;;;;;5050134;28;19909;-75
2022/07/27 09:09:26;;;;;;;;;;;25.30;87.40;;;;;;5050228;28;19916;-74
2022/07/27 09:12:04;;;;;;;;;;;24.80;89.20;;;;;;5050155;28;19994;-74
2022/07/27 09:14:31;;;;;;;;;;;24.90;91.30;;;;;;5050234;28;19999;-74
2022/07/27 09:16:56;;;;;;;;;;;27.50;90.60;;;;;;5050134;28;19966;-75
2022/07/27 09:19:22;;;;;;;;;;;29.80;80.90;;;;;;5046348;28;19913;-75
2022/07/27 09:21:47;;;;;;;;;;;30.70;70.30;;;;;;5045487;28;20260;-75
2022/07/27 09:24:14;;;;;;;;;;;29.50;67.90;;;;;;5043643;28;20273;-75
2022/07/27 09:26:39;;;;;;;;;;;28.00;69.50;;;;;;5060214;28;19955;-75
2022/07/27 09:29:05;;;;;;;;;;;26.80;69.90;;;;;;5053528;28;19920;-74
2022/07/27 09:31:31;;;;;;;;;;;26.20;74.40;;;;;;5050291;28;19986;-75
2022/07/27 09:33:58;;;;;;;;;;;25.60;76.10;;;;;;5049313;28;19913;-75
2022/07/27 09:36:25;;;;;;;;;;;25.50;79.40;;;;;;5053217;28;19909;-75
2022/07/27 09:38:52;;;;;;;;;;;26.50;81.00;;;;;;5046697;28;19955;-75
2022/07/27 09:41:18;;;;;;;;;;;28.60;74.80;;;;;;5053563;28;19909;-75
2022/07/27 09:43:45;;;;;;;;;;;28.90;67.70;;;;;;5054013;28;20344;-74
2022/07/27 09:46:11;;;;;;;;;;;28.80;66.80;;;;;;5053650;28;19958;-74
2022/07/27 09:48:37;;;;;;;;;;;28.00;66.50;;;;;;5053998;28;20003;-74
2022/07/27 09:51:04;;;;;;;;;;;27.30;68.10;;;;;;5053377;28;20380;-75
2022/07/27 09:53:33;;;;;;;;;;;26.80;69.00;;;;;;5051288;28;20392;-74
2022/07/27 09:56:09;;;;;;;;;;;26.60;71.00;;;;;;5053166;28;19967;-75
2022/07/27 09:58:39;;;;;;;;;;;26.40;70.60;;;;;;5053592;28;20272;-69
2022/07/27 10:01:08;;;;;;;;;;;26.30;75.00;;;;;;5053491;28;20324;-70
2022/07/27 10:03:34;;;;;;;;;;;26.10;75.90;;;;;;5053391;28;19963;-69
2022/07/27 10:06:00;;;;;;;;;;;25.90;76.50;;;;;;5053272;28;19913;-69
2022/07/27 10:08:26;;;;;;;;;;;25.50;71.80;;;;;;5053580;28;19909;-69
2022/07/27 10:10:51;;;;;;;;;;;24.70;73.60;;;;;;5053316;28;19919;-70
2022/07/27 10:13:17;;;;;;;;;;;24.70;75.20;;;;;;5053611;28;19913;-69
2022/07/27 10:15:43;;;;;;;;;;;24.70;74.60;;;;;;5052855;28;19916;-74
2022/07/27 10:18:17;;;;;;;;;;;24.40;74.40;;;;;;5053051;28;19944;-75
2022/07/27 10:20:44;;;;;;;;;;;25.00;76.40;;;;;;5053726;28;20372;-76
2022/07/27 10:23:23;;;;;;;;;;;25.30;75.50;;;;;;5053267;28;19908;-74
2022/07/27 10:26:08;;;;;;;;;;;25.60;74.40;;;;;;5053051;28;19909;-75
2022/07/27 10:28:46;;;;;;;;;;;26.40;76.60;;;;;;5052653;28;20498;-76
2022/07/27 10:31:17;;;;;;;;;;;26.90;73.30;;;;;;5053073;28;19913;-75
2022/07/27 10:33:42;;;;;;;;;;;26.80;68.20;;;;;;5053165;28;20318;-75
2022/07/27 10:36:20;;;;;;;;;;;28.00;64.80;;;;;;5052838;28;19909;-75
2022/07/27 10:38:47;;;;;;;;;;;28.50;66.00;;;;;;5052911;28;19909;-75
2022/07/27 10:41:20;;;;;;;;;;;27.90;67.10;;;;;;5052635;28;19999;-74
2022/07/27 10:43:45;;;;;;;;;;;27.10;67.00;;;;;;5052795;28;20003;-75
2022/07/27 10:46:17;;;;;;;;;;;26.10;67.00;;;;;;5052762;28;19991;-75
2022/07/27 10:48:43;;;;;;;;;;;25.90;71.40;;;;;;5052899;28;19996;-75
2022/07/27 10:51:09;;;;;;;;;;;25.40;70.80;;;;;;5052846;28;20019;-75
2022/07/27 10:53:39;;;;;;;;;;;25.30;73.30;;;;;;5048324;28;19921;-75
2022/07/27 10:56:05;;;;;;;;;;;25.20;75.30;;;;;;5049019;28;20357;-75
2022/07/27 10:58:31;;;;;;;;;;;25.10;77.30;;;;;;5049544;28;19909;-75
2022/07/27 11:00:57;;;;;;;;;;;25.20;80.50;;;;;;5049116;28;19932;-75
2022/07/27 11:03:23;;;;;;;;;;;25.10;78.20;;;;;;5049802;28;19920;-75
2022/07/27 11:06:08;;;;;;;;;;;25.40;78.70;;;;;;5049253;28;20372;-75
2022/07/27 11:08:35;;;;;;;;;;;25.00;72.80;;;;;;5049257;28;19909;-75
2022/07/27 11:11:01;;;;;;;;;;;25.40;77.30;;;;;;5049250;28;19971;-75
2022/07/27 11:13:27;;;;;;;;;;;25.60;79.80;;;;;;5049360;28;19964;-75
2022/07/27 11:15:54;;;;;;;;;;;25.50;75.70;;;;;;5049036;28;19909;-75
2022/07/27 11:18:27;;;;;;;;;;;25.40;73.80;;;;;;5049056;28;19909;-75
2022/07/27 11:21:11;;;;;;;;;;;25.50;78.00;;;;;;5049120;28;19909;-75
2022/07/27 11:23:36;;;;;;;;;;;25.60;77.40;;;;;;5049240;28;19909;-71
2022/07/27 11:26:02;;;;;;;;;;;25.70;73.90;;;;;;5050013;28;19916;-77
2022/07/27 11:28:32;;;;;;;;;;;25.80;73.10;;;;;;5051516;28;19963;-77
2022/07/27 11:30:58;;;;;;;;;;;25.90;72.30;;;;;;5052323;28;20000;-78
2022/07/27 11:33:23;;;;;;;;;;;25.40;73.80;;;;;;5049779;28;19951;-76
2022/07/27 11:35:53;;;;;;;;;;;25.10;75.10;;;;;;5048734;28;19952;-75
2022/07/27 11:38:19;;;;;;;;;;;24.70;76.30;;;;;;5048584;28;20024;-76
2022/07/27 11:40:45;;;;;;;;;;;24.40;78.60;;;;;;5048824;28;19968;-74
2022/07/27 11:43:11;;;;;;;;;;;24.20;80.30;;;;;;5048622;28;19924;-75
2022/07/27 11:45:40;;;;;;;;;;;24.00;78.90;;;;;;5048345;28;19916;-74
2022/07/27 11:48:06;;;;;;;;;;;23.90;80.50;;;;;;5048478;28;20372;-75
2022/07/27 11:50:32;;;;;;;;;;;23.70;81.00;;;;;;5048018;28;19918;-75
2022/07/27 11:52:59;;;;;;;;;;;23.60;81.00;;;;;;5048436;28;19909;-75
2022/07/27 11:55:25;;;;;;;;;;;23.90;85.20;;;;;;5064035;28;19920;-75
2022/07/27 11:57:50;;;;;;;;;;;24.10;83.60;;;;;;5051369;28;19908;-75
2022/07/27 12:00:16;;;;;;;;;;;24.10;82.80;;;;;;5054412;28;19908;-75
2022/07/27 12:02:48;;;;;;;;;;;24.50;82.90;;;;;;5051620;28;19909;-75
2022/07/27 12:05:14;;;;;;;;;;;24.80;81.30;;;;;;5051479;28;20004;-75
2022/07/27 12:07:40;;;;;;;;;;;25.00;80.50;;;;;;5051214;28;20043;-75
2022/07/27 12:10:06;;;;;;;;;;;25.20;79.30;;;;;;5051478;28;19909;-75
2022/07/27 12:12:33;;;;;;;;;;;25.30;76.40;;;;;;5051304;28;20406;-75
2022/07/27 12:15:02;;;;;;;;;;;25.40;76.30;;;;;;5051357;28;19952;-75
2022/07/27 12:17:29;;;;;;;;;;;25.50;75.80;;;;;;5051139;28;20292;-76
2022/07/27 12:20:04;;;;;;;;;;;25.40;70.90;;;;;;5051316;28;19912;-76
2022/07/27 12:22:30;;;;;;;;;;;25.50;70.80;;;;;;5051549;28;19909;-74
2022/07/27 12:24:56;;;;;;;;;;;25.60;68.30;;;;;;5049005;28;19931;-76
2022/07/27 12:27:22;;;;;;;;;;;25.60;68.80;;;;;;5037948;28;19959;-76
2022/07/27 12:29:59;;;;;;;;;;;25.50;66.70;;;;;;5039895;28;19952;-76
2022/07/27 12:32:25;;;;;;;;;;;25.10;65.20;;;;;;5051126;28;19917;-76
2022/07/27 12:34:51;;;;;;;;;;;24.40;65.80;;;;;;5051031;28;19999;-76
2022/07/27 12:37:17;;;;;;;;;;;24.40;68.20;;;;;;5050451;28;20023;-76
2022/07/27 12:39:43;;;;;;;;;;;24.70;65.90;;;;;;5049939;28;19909;-75
2022/07/27 12:42:09;;;;;;;;;;;25.10;68.30;;;;;;5050758;28;19962;-76
2022/07/27 12:44:36;;;;;;;;;;;25.20;70.30;;;;;;5050902;28;19939;-76
2022/07/27 12:50:00;;;;;;;;;;;25.40;63.90;;;;;;5051658;28;20387;-75
2022/07/27 12:52:26;;;;;;;;;;;25.30;62.40;;;;;;5050410;28;20003;-76
2022/07/27 12:54:52;;;;;;;;;;;25.80;67.70;;;;;;5050675;28;20004;-76
2022/07/27 12:57:17;;;;;;;;;;;25.90;66.70;;;;;;5050215;28;19908;-76
2022/07/27 12:59:43;;;;;;;;;;;25.90;65.00;;;;;;5050547;28;20331;-76
2022/07/27 13:02:09;;;;;;;;;;;26.00;66.50;;;;;;5050668;28;19916;-76
2022/07/27 13:04:34;;;;;;;;;;;26.30;66.30;;;;;;5054833;28;19939;-76
2022/07/27 13:07:00;;;;;;;;;;;26.40;63.50;;;;;;5054301;28;19908;-76
2022/07/27 13:09:26;;;;;;;;;;;26.30;58.90;;;;;;5054718;28;19962;-76
2022/07/27 13:11:53;;;;;;;;;;;26.10;58.80;;;;;;5054044;28;19921;-76
2022/07/27 13:14:19;;;;;;;;;;;26.00;60.60;;;;;;5051672;28;20003;-76
2022/07/27 13:16:45;;;;;;;;;;;25.70;61.70;;;;;;5067797;28;19970;-76
2022/07/27 13:19:13;;;;;;;;;;;25.60;65.80;;;;;;5054264;28;20364;-76
2022/07/27 13:21:39;;;;;;;;;;;25.30;65.00;;;;;;5034499;28;20000;-76
2022/07/27 13:24:07;;;;;;;;;;;25.10;63.30;;;;;;5034533;28;19917;-76
2022/07/27 13:26:33;;;;;;;;;;;24.90;63.90;;;;;;5042388;28;19942;-76
2022/07/27 13:28:58;;;;;;;;;;;24.90;66.70;;;;;;5054104;28;20495;-76
2022/07/27 13:31:24;;;;;;;;;;;24.90;67.90;;;;;;5054157;28;19916;-75
2022/07/27 13:33:50;;;;;;;;;;;24.90;67.50;;;;;;5055359;28;19920;-76
2022/07/27 13:36:16;;;;;;;;;;;24.90;65.20;;;;;;5053821;28;20040;-75
2022/07/27 13:38:42;;;;;;;;;;;24.80;65.60;;;;;;5052881;28;20019;-76
2022/07/27 13:41:08;;;;;;;;;;;24.70;66.00;;;;;;5046533;28;19913;-77
2022/07/27 13:43:33;;;;;;;;;;;24.80;65.80;;;;;;5054029;28;20043;-76
2022/07/27 13:45:59;;;;;;;;;;;24.90;65.60;;;;;;5053826;28;19909;-76
2022/07/27 13:48:26;;;;;;;;;;;25.10;68.90;;;;;;5052206;28;19917;-76
2022/07/27 13:50:52;;;;;;;;;;;25.20;67.50;;;;;;5050307;28;20577;-76
2022/07/27 13:53:17;;;;;;;;;;;25.60;69.40;;;;;;5045713;28;19915;-77
2022/07/27 13:55:43;;;;;;;;;;;25.60;64.40;;;;;;5053396;28;19923;-76
2022/07/27 13:58:10;;;;;;;;;;;25.60;59.70;;;;;;5053601;28;19952;-76
2022/07/27 14:00:36;;;;;;;;;;;25.70;62.60;;;;;;5053618;28;19948;-76
2022/07/27 14:03:02;;;;;;;;;;;26.00;66.40;;;;;;5053638;28;19974;-75
2022/07/27 14:05:28;;;;;;;;;;;26.20;62.80;;;;;;5050733;28;19921;-75
2022/07/27 14:07:53;;;;;;;;;;;26.30;64.00;;;;;;5060139;28;19935;-76
2022/07/27 14:10:31;;;;;;;;;;;26.50;64.50;;;;;;5053396;28;19909;-76
2022/07/27 14:13:04;;;;;;;;;;;26.50;64.80;;;;;;5052891;28;19952;-75
2022/07/27 14:15:30;;;;;;;;;;;26.70;62.60;;;;;;5053517;28;19955;-76
2022/07/27 14:17:56;;;;;;;;;;;26.90;64.20;;;;;;5053306;28;20314;-77
2022/07/27 14:20:21;;;;;;;;;;;26.40;59.40;;;;;;5053376;28;20566;-76
2022/07/27 14:22:47;;;;;;;;;;;26.50;63.90;;;;;;5053697;28;19909;-76